sensor_id;sensor_type;location;lat;lon;timestamp;temperature;humidity
20700;DHT22;10511;51.232;9.420;2023-02-18T00:00:21;9.60;99.90
20700;DHT22;10511;51.232;9.420;2023-02-18T00:02:48;9.60;99.90
20700;DHT22;10511;51.232;9.420;2023-02-18T00:05:15;9.50;99.90
20700;DHT22;10511;51.232;9.420;2023-02-18T00:07:44;9.50;99.90
20700;DHT22;10511;51.232;9.420;2023-02-18T00:10:13;9.50;99.90
20700;DHT22;10511;51.232;9.420;2023-02-18T00:12:41;9.50;99.90
20700;DHT22;10511;51.232;9.420;2023-02-18T00:15:08;9.50;99.90
20700;DHT22;10511;51.232;9.420;2023-02-18T00:17:35;9.40;99.90
20700;DHT22;10511;51.232;9.420;2023-02-18T00:20:03;9.40;99.90
20700;DHT22;10511;51.232;9.420;2023-02-18T00:22:30;9.40;99.90
20700;DHT22;10511;51.232;9.420;2023-02-18T00:24:58;9.40;99.90
20700;DHT22;10511;51.232;9.420;2023-02-18T00:27:25;9.40;99.90
20700;DHT22;10511;51.232;9.420;2023-02-18T00:29:52;9.30;99.90
20700;DHT22;10511;51.232;9.420;2023-02-18T00:32:19;9.30;99.90
20700;DHT22;10511;51.232;9.420;2023-02-18T00:34:46;9.30;99.90
20700;DHT22;10511;51.232;9.420;2023-02-18T00:37:13;9.20;99.90
20700;DHT22;10511;51.232;9.420;2023-02-18T00:39:39;9.20;99.90
20700;DHT22;10511;51.232;9.420;2023-02-18T00:42:08;9.10;99.90
20700;DHT22;10511;51.232;9.420;2023-02-18T00:44:34;9.10;99.90
20700;DHT22;10511;51.232;9.420;2023-02-18T00:47:01;9.10;99.90
20700;DHT22;10511;51.232;9.420;2023-02-18T00:49:28;9.10;99.90
20700;DHT22;10511;51.232;9.420;2023-02-18T00:51:55;9.10;99.90
20700;DHT22;10511;51.232;9.420;2023-02-18T00:54:22;9.10;99.90
20700;DHT22;10511;51.232;9.420;2023-02-18T00:56:49;9.10;99.90
20700;DHT22;10511;51.232;9.420;2023-02-18T00:59:17;9.10;99.90
20700;DHT22;10511;51.232;9.420;2023-02-18T01:01:44;9.10;99.90
20700;DHT22;10511;51.232;9.420;2023-02-18T01:04:11;9.00;99.90
20700;DHT22;10511;51.232;9.420;2023-02-18T01:06:38;9.10;99.90
20700;DHT22;10511;51.232;9.420;2023-02-18T01:09:05;9.00;99.90
20700;DHT22;10511;51.232;9.420;2023-02-18T01:11:32;9.00;99.90
20700;DHT22;10511;51.232;9.420;2023-02-18T01:13:59;9.00;99.90
20700;DHT22;10511;51.232;9.420;2023-02-18T01:16:27;9.00;99.90
20700;DHT22;10511;51.232;9.420;2023-02-18T01:18:54;9.00;99.90
20700;DHT22;10511;51.232;9.420;2023-02-18T01:21:21;9.00;99.90
20700;DHT22;10511;51.232;9.420;2023-02-18T01:23:48;8.90;99.90
20700;DHT22;10511;51.232;9.420;2023-02-18T01:26:15;9.00;99.90
20700;DHT22;10511;51.232;9.420;2023-02-18T01:28:41;9.00;99.90
20700;DHT22;10511;51.232;9.420;2023-02-18T01:31:10;8.90;99.90
20700;DHT22;10511;51.232;9.420;2023-02-18T01:33:39;9.00;99.90
20700;DHT22;10511;51.232;9.420;2023-02-18T01:36:07;9.00;99.90
20700;DHT22;10511;51.232;9.420;2023-02-18T01:38:34;9.00;99.90
20700;DHT22;10511;51.232;9.420;2023-02-18T01:41:01;9.10;99.90
20700;DHT22;10511;51.232;9.420;2023-02-18T01:43:28;9.10;99.90
20700;DHT22;10511;51.232;9.420;2023-02-18T01:46:09;9.10;99.90
20700;DHT22;10511;51.232;9.420;2023-02-18T01:48:42;9.10;99.90
20700;DHT22;10511;51.232;9.420;2023-02-18T01:51:12;9.00;99.90
20700;DHT22;10511;51.232;9.420;2023-02-18T01:53:46;9.10;99.90
20700;DHT22;10511;51.232;9.420;2023-02-18T01:56:18;9.00;99.90
20700;DHT22;10511;51.232;9.420;2023-02-18T01:58:47;9.10;99.90
20700;DHT22;10511;51.232;9.420;2023-02-18T02:01:14;9.10;99.90
20700;DHT22;10511;51.232;9.420;2023-02-18T02:03:43;9.10;99.90
20700;DHT22;10511;51.232;9.420;2023-02-18T02:06:14;9.00;99.90
20700;DHT22;10511;51.232;9.420;2023-02-18T02:08:42;9.00;99.90
20700;DHT22;10511;51.232;9.420;2023-02-18T02:11:20;9.00;99.90
20700;DHT22;10511;51.232;9.420;2023-02-18T02:14:17;9.00;99.90
20700;DHT22;10511;51.232;9.420;2023-02-18T02:16:52;8.90;99.90
20700;DHT22;10511;51.232;9.420;2023-02-18T02:22:51;8.90;99.90
20700;DHT22;10511;51.232;9.420;2023-02-18T02:25:50;8.90;99.90
20700;DHT22;10511;51.232;9.420;2023-02-18T02:28:50;8.80;99.90
20700;DHT22;10511;51.232;9.420;2023-02-18T02:31:46;8.90;99.90
20700;DHT22;10511;51.232;9.420;2023-02-18T02:34:41;8.90;99.90
20700;DHT22;10511;51.232;9.420;2023-02-18T02:37:15;8.90;99.90
20700;DHT22;10511;51.232;9.420;2023-02-18T02:39:55;9.00;99.90
20700;DHT22;10511;51.232;9.420;2023-02-18T02:42:29;9.00;99.90
20700;DHT22;10511;51.232;9.420;2023-02-18T02:45:03;9.00;99.90
20700;DHT22;10511;51.232;9.420;2023-02-18T02:47:37;9.10;99.90
20700;DHT22;10511;51.232;9.420;2023-02-18T02:50:09;9.10;99.90
20700;DHT22;10511;51.232;9.420;2023-02-18T02:52:43;9.20;99.90
20700;DHT22;10511;51.232;9.420;2023-02-18T02:55:11;9.20;99.90
20700;DHT22;10511;51.232;9.420;2023-02-18T02:57:49;9.20;99.90
20700;DHT22;10511;51.232;9.420;2023-02-18T03:00:19;9.40;99.90
20700;DHT22;10511;51.232;9.420;2023-02-18T03:03:02;9.40;99.90
20700;DHT22;10511;51.232;9.420;2023-02-18T03:05:41;9.50;99.90
20700;DHT22;10511;51.232;9.420;2023-02-18T03:08:22;9.60;99.90
20700;DHT22;10511;51.232;9.420;2023-02-18T03:10:56;9.60;99.90
20700;DHT22;10511;51.232;9.420;2023-02-18T03:13:37;9.60;99.90
20700;DHT22;10511;51.232;9.420;2023-02-18T03:16:14;9.60;99.90
20700;DHT22;10511;51.232;9.420;2023-02-18T03:18:47;9.60;99.90
20700;DHT22;10511;51.232;9.420;2023-02-18T03:21:20;9.60;99.90
20700;DHT22;10511;51.232;9.420;2023-02-18T03:23:54;9.60;99.90
20700;DHT22;10511;51.232;9.420;2023-02-18T03:26:22;9.60;99.90
20700;DHT22;10511;51.232;9.420;2023-02-18T03:28:50;9.60;99.90
20700;DHT22;10511;51.232;9.420;2023-02-18T03:31:20;9.50;99.90
20700;DHT22;10511;51.232;9.420;2023-02-18T03:33:51;9.50;99.90
20700;DHT22;10511;51.232;9.420;2023-02-18T03:36:21;9.50;99.90
20700;DHT22;10511;51.232;9.420;2023-02-18T03:38:53;9.60;99.90
20700;DHT22;10511;51.232;9.420;2023-02-18T03:41:21;9.50;99.90
20700;DHT22;10511;51.232;9.420;2023-02-18T03:43:49;9.50;99.90
20700;DHT22;10511;51.232;9.420;2023-02-18T03:46:16;9.50;99.90
20700;DHT22;10511;51.232;9.420;2023-02-18T03:48:43;9.50;99.90
20700;DHT22;10511;51.232;9.420;2023-02-18T03:51:10;9.50;99.90
20700;DHT22;10511;51.232;9.420;2023-02-18T03:53:39;9.50;99.90
20700;DHT22;10511;51.232;9.420;2023-02-18T03:56:06;9.50;99.90
20700;DHT22;10511;51.232;9.420;2023-02-18T03:58:32;9.50;99.90
20700;DHT22;10511;51.232;9.420;2023-02-18T04:00:59;9.50;99.90
20700;DHT22;10511;51.232;9.420;2023-02-18T04:03:26;9.50;99.90
20700;DHT22;10511;51.232;9.420;2023-02-18T04:05:53;9.40;99.90
20700;DHT22;10511;51.232;9.420;2023-02-18T04:08:20;9.40;99.90
20700;DHT22;10511;51.232;9.420;2023-02-18T04:10:48;9.50;99.90
20700;DHT22;10511;51.232;9.420;2023-02-18T04:13:15;9.40;99.90
20700;DHT22;10511;51.232;9.420;2023-02-18T04:15:43;9.40;99.90
20700;DHT22;10511;51.232;9.420;2023-02-18T04:18:10;9.30;99.90
20700;DHT22;10511;51.232;9.420;2023-02-18T04:20:37;9.40;99.90
20700;DHT22;10511;51.232;9.420;2023-02-18T04:23:04;9.40;99.90
20700;DHT22;10511;51.232;9.420;2023-02-18T04:25:31;9.40;99.90
20700;DHT22;10511;51.232;9.420;2023-02-18T04:27:59;9.30;99.90
20700;DHT22;10511;51.232;9.420;2023-02-18T04:30:26;9.30;99.90
20700;DHT22;10511;51.232;9.420;2023-02-18T04:32:53;9.40;99.90
20700;DHT22;10511;51.232;9.420;2023-02-18T04:35:20;9.40;99.90
20700;DHT22;10511;51.232;9.420;2023-02-18T04:37:47;9.50;99.90
20700;DHT22;10511;51.232;9.420;2023-02-18T04:40:14;9.50;99.90
20700;DHT22;10511;51.232;9.420;2023-02-18T04:42:41;9.50;99.90
20700;DHT22;10511;51.232;9.420;2023-02-18T04:45:09;9.50;99.90
20700;DHT22;10511;51.232;9.420;2023-02-18T04:47:36;9.50;99.90
20700;DHT22;10511;51.232;9.420;2023-02-18T04:50:03;9.50;99.90
20700;DHT22;10511;51.232;9.420;2023-02-18T04:52:30;9.60;99.90
20700;DHT22;10511;51.232;9.420;2023-02-18T04:54:57;9.60;99.90
20700;DHT22;10511;51.232;9.420;2023-02-18T04:57:24;9.60;99.90
20700;DHT22;10511;51.232;9.420;2023-02-18T04:59:51;9.50;99.90
20700;DHT22;10511;51.232;9.420;2023-02-18T05:02:19;9.50;99.90
20700;DHT22;10511;51.232;9.420;2023-02-18T05:04:46;9.50;99.90
20700;DHT22;10511;51.232;9.420;2023-02-18T05:07:13;9.50;99.90
20700;DHT22;10511;51.232;9.420;2023-02-18T05:09:40;9.40;99.90
20700;DHT22;10511;51.232;9.420;2023-02-18T05:12:07;9.50;99.90
20700;DHT22;10511;51.232;9.420;2023-02-18T05:14:34;9.50;99.90
20700;DHT22;10511;51.232;9.420;2023-02-18T05:17:00;9.50;99.90
20700;DHT22;10511;51.232;9.420;2023-02-18T05:19:29;9.50;99.90
20700;DHT22;10511;51.232;9.420;2023-02-18T05:21:56;9.50;99.90
20700;DHT22;10511;51.232;9.420;2023-02-18T05:24:22;9.50;99.90
20700;DHT22;10511;51.232;9.420;2023-02-18T05:26:49;9.50;99.90
20700;DHT22;10511;51.232;9.420;2023-02-18T05:29:16;9.50;99.90
20700;DHT22;10511;51.232;9.420;2023-02-18T05:31:43;9.50;99.90
20700;DHT22;10511;51.232;9.420;2023-02-18T05:34:10;9.50;99.90
20700;DHT22;10511;51.232;9.420;2023-02-18T05:36:38;9.50;99.90
20700;DHT22;10511;51.232;9.420;2023-02-18T05:39:05;9.60;99.90
20700;DHT22;10511;51.232;9.420;2023-02-18T05:41:32;9.60;99.90
20700;DHT22;10511;51.232;9.420;2023-02-18T05:43:58;9.60;99.90
20700;DHT22;10511;51.232;9.420;2023-02-18T05:46:43;9.60;99.90
20700;DHT22;10511;51.232;9.420;2023-02-18T05:49:10;9.70;99.90
20700;DHT22;10511;51.232;9.420;2023-02-18T05:51:38;9.70;99.90
20700;DHT22;10511;51.232;9.420;2023-02-18T05:54:05;9.70;99.90
20700;DHT22;10511;51.232;9.420;2023-02-18T05:56:32;9.70;99.90
20700;DHT22;10511;51.232;9.420;2023-02-18T05:58:59;9.70;99.90
20700;DHT22;10511;51.232;9.420;2023-02-18T06:01:26;9.70;99.90
20700;DHT22;10511;51.232;9.420;2023-02-18T06:03:52;9.70;99.90
20700;DHT22;10511;51.232;9.420;2023-02-18T06:06:19;9.70;99.90
20700;DHT22;10511;51.232;9.420;2023-02-18T06:08:48;9.70;99.90
20700;DHT22;10511;51.232;9.420;2023-02-18T06:11:14;9.70;99.90
20700;DHT22;10511;51.232;9.420;2023-02-18T06:13:41;9.60;99.90
20700;DHT22;10511;51.232;9.420;2023-02-18T06:16:08;9.60;99.90
20700;DHT22;10511;51.232;9.420;2023-02-18T06:18:35;9.50;99.90
20700;DHT22;10511;51.232;9.420;2023-02-18T06:21:02;9.40;99.90
20700;DHT22;10511;51.232;9.420;2023-02-18T06:23:29;9.40;99.90
20700;DHT22;10511;51.232;9.420;2023-02-18T06:25:57;9.30;99.90
20700;DHT22;10511;51.232;9.420;2023-02-18T06:28:24;9.30;99.90
20700;DHT22;10511;51.232;9.420;2023-02-18T06:30:51;9.30;99.90
20700;DHT22;10511;51.232;9.420;2023-02-18T06:33:18;9.20;99.90
20700;DHT22;10511;51.232;9.420;2023-02-18T06:35:52;9.20;99.90
20700;DHT22;10511;51.232;9.420;2023-02-18T06:38:19;9.20;99.90
20700;DHT22;10511;51.232;9.420;2023-02-18T06:40:46;9.20;99.90
20700;DHT22;10511;51.232;9.420;2023-02-18T06:43:15;9.20;99.90
20700;DHT22;10511;51.232;9.420;2023-02-18T06:45:42;9.30;99.90
20700;DHT22;10511;51.232;9.420;2023-02-18T06:48:09;9.30;99.90
20700;DHT22;10511;51.232;9.420;2023-02-18T06:50:36;9.30;99.90
20700;DHT22;10511;51.232;9.420;2023-02-18T06:53:03;9.40;99.90
20700;DHT22;10511;51.232;9.420;2023-02-18T06:55:30;9.40;99.90
20700;DHT22;10511;51.232;9.420;2023-02-18T06:57:57;9.50;99.90
20700;DHT22;10511;51.232;9.420;2023-02-18T07:00:25;9.50;99.90
20700;DHT22;10511;51.232;9.420;2023-02-18T07:02:52;9.50;99.90
20700;DHT22;10511;51.232;9.420;2023-02-18T07:05:19;9.50;99.90
20700;DHT22;10511;51.232;9.420;2023-02-18T07:07:46;9.50;99.90
20700;DHT22;10511;51.232;9.420;2023-02-18T07:10:13;9.50;99.90
20700;DHT22;10511;51.232;9.420;2023-02-18T07:12:40;9.50;99.90
20700;DHT22;10511;51.232;9.420;2023-02-18T07:15:07;9.50;99.90
20700;DHT22;10511;51.232;9.420;2023-02-18T07:17:35;9.50;99.90
20700;DHT22;10511;51.232;9.420;2023-02-18T07:20:03;9.60;99.90
20700;DHT22;10511;51.232;9.420;2023-02-18T07:22:30;9.60;99.90
20700;DHT22;10511;51.232;9.420;2023-02-18T07:24:57;9.60;99.90
20700;DHT22;10511;51.232;9.420;2023-02-18T07:27:24;9.60;99.90
20700;DHT22;10511;51.232;9.420;2023-02-18T07:29:51;9.60;99.90
20700;DHT22;10511;51.232;9.420;2023-02-18T07:32:19;9.60;99.90
20700;DHT22;10511;51.232;9.420;2023-02-18T07:34:47;9.60;99.90
20700;DHT22;10511;51.232;9.420;2023-02-18T07:37:14;9.60;99.90
20700;DHT22;10511;51.232;9.420;2023-02-18T07:39:41;9.60;99.90
20700;DHT22;10511;51.232;9.420;2023-02-18T07:42:09;9.50;99.90
20700;DHT22;10511;51.232;9.420;2023-02-18T07:44:36;9.50;99.90
20700;DHT22;10511;51.232;9.420;2023-02-18T07:47:04;9.50;99.90
20700;DHT22;10511;51.232;9.420;2023-02-18T07:49:32;9.50;99.90
20700;DHT22;10511;51.232;9.420;2023-02-18T07:52:00;9.40;99.90
20700;DHT22;10511;51.232;9.420;2023-02-18T07:54:27;9.40;99.90
20700;DHT22;10511;51.232;9.420;2023-02-18T07:56:54;9.40;99.90
20700;DHT22;10511;51.232;9.420;2023-02-18T07:59:21;9.40;99.90
20700;DHT22;10511;51.232;9.420;2023-02-18T08:01:47;9.40;99.90
20700;DHT22;10511;51.232;9.420;2023-02-18T08:04:14;9.40;99.90
20700;DHT22;10511;51.232;9.420;2023-02-18T08:06:44;9.40;99.90
20700;DHT22;10511;51.232;9.420;2023-02-18T08:09:13;9.40;99.90
20700;DHT22;10511;51.232;9.420;2023-02-18T08:11:41;9.40;99.90
20700;DHT22;10511;51.232;9.420;2023-02-18T08:14:08;9.40;99.90
20700;DHT22;10511;51.232;9.420;2023-02-18T08:16:35;9.40;99.90
20700;DHT22;10511;51.232;9.420;2023-02-18T08:19:03;9.40;99.90
20700;DHT22;10511;51.232;9.420;2023-02-18T08:21:31;9.40;99.90
20700;DHT22;10511;51.232;9.420;2023-02-18T08:23:58;9.40;99.90
20700;DHT22;10511;51.232;9.420;2023-02-18T08:26:28;9.40;99.90
20700;DHT22;10511;51.232;9.420;2023-02-18T08:28:55;9.40;99.90
20700;DHT22;10511;51.232;9.420;2023-02-18T08:31:24;9.50;99.90
20700;DHT22;10511;51.232;9.420;2023-02-18T08:33:52;9.40;99.90
20700;DHT22;10511;51.232;9.420;2023-02-18T08:36:19;9.50;99.90
20700;DHT22;10511;51.232;9.420;2023-02-18T08:38:46;9.50;99.90
20700;DHT22;10511;51.232;9.420;2023-02-18T08:41:13;9.40;99.90
20700;DHT22;10511;51.232;9.420;2023-02-18T08:43:41;9.50;99.90
20700;DHT22;10511;51.232;9.420;2023-02-18T08:46:08;9.50;99.90
20700;DHT22;10511;51.232;9.420;2023-02-18T08:48:35;9.60;99.90
20700;DHT22;10511;51.232;9.420;2023-02-18T08:51:11;9.60;99.90
20700;DHT22;10511;51.232;9.420;2023-02-18T08:53:38;9.60;99.90
20700;DHT22;10511;51.232;9.420;2023-02-18T08:56:07;9.60;99.90
20700;DHT22;10511;51.232;9.420;2023-02-18T08:58:34;9.60;99.90
20700;DHT22;10511;51.232;9.420;2023-02-18T09:01:05;9.60;99.90
20700;DHT22;10511;51.232;9.420;2023-02-18T09:03:33;9.60;99.90
20700;DHT22;10511;51.232;9.420;2023-02-18T09:06:00;9.70;99.90
20700;DHT22;10511;51.232;9.420;2023-02-18T09:08:28;9.70;99.90
20700;DHT22;10511;51.232;9.420;2023-02-18T09:10:55;9.80;99.90
20700;DHT22;10511;51.232;9.420;2023-02-18T09:13:22;9.80;99.90
20700;DHT22;10511;51.232;9.420;2023-02-18T09:15:56;9.80;99.90
20700;DHT22;10511;51.232;9.420;2023-02-18T09:18:25;9.80;99.90
20700;DHT22;10511;51.232;9.420;2023-02-18T09:20:55;9.90;99.90
20700;DHT22;10511;51.232;9.420;2023-02-18T09:23:23;9.90;99.90
20700;DHT22;10511;51.232;9.420;2023-02-18T09:25:50;9.90;99.90
20700;DHT22;10511;51.232;9.420;2023-02-18T09:28:17;9.90;99.90
20700;DHT22;10511;51.232;9.420;2023-02-18T09:30:44;9.90;99.90
20700;DHT22;10511;51.232;9.420;2023-02-18T09:33:11;10.00;99.90
20700;DHT22;10511;51.232;9.420;2023-02-18T09:35:40;10.10;99.90
20700;DHT22;10511;51.232;9.420;2023-02-18T09:38:08;10.10;99.90
20700;DHT22;10511;51.232;9.420;2023-02-18T09:40:37;10.10;99.90
20700;DHT22;10511;51.232;9.420;2023-02-18T09:43:05;10.20;99.90
20700;DHT22;10511;51.232;9.420;2023-02-18T09:45:32;10.10;99.90
20700;DHT22;10511;51.232;9.420;2023-02-18T09:48:00;10.10;99.90
20700;DHT22;10511;51.232;9.420;2023-02-18T09:50:30;10.10;99.90
20700;DHT22;10511;51.232;9.420;2023-02-18T09:53:00;10.10;99.90
20700;DHT22;10511;51.232;9.420;2023-02-18T09:55:30;10.10;99.90
20700;DHT22;10511;51.232;9.420;2023-02-18T09:58:00;10.10;99.90
20700;DHT22;10511;51.232;9.420;2023-02-18T10:00:32;10.10;99.90
20700;DHT22;10511;51.232;9.420;2023-02-18T10:03:03;10.10;99.90
20700;DHT22;10511;51.232;9.420;2023-02-18T10:05:31;10.20;99.90
20700;DHT22;10511;51.232;9.420;2023-02-18T10:08:03;10.20;99.90
20700;DHT22;10511;51.232;9.420;2023-02-18T10:10:36;10.30;99.90
20700;DHT22;10511;51.232;9.420;2023-02-18T10:13:10;10.30;99.90
20700;DHT22;10511;51.232;9.420;2023-02-18T10:15:39;10.40;99.90
20700;DHT22;10511;51.232;9.420;2023-02-18T10:18:21;10.40;99.90
20700;DHT22;10511;51.232;9.420;2023-02-18T10:20:50;10.50;99.90
20700;DHT22;10511;51.232;9.420;2023-02-18T10:23:20;10.50;99.90
20700;DHT22;10511;51.232;9.420;2023-02-18T10:25:47;10.60;99.90
20700;DHT22;10511;51.232;9.420;2023-02-18T10:28:14;10.60;99.90
20700;DHT22;10511;51.232;9.420;2023-02-18T10:30:48;10.50;99.90
20700;DHT22;10511;51.232;9.420;2023-02-18T10:33:31;10.50;99.90
20700;DHT22;10511;51.232;9.420;2023-02-18T10:36:05;10.40;99.90
20700;DHT22;10511;51.232;9.420;2023-02-18T10:38:42;10.40;99.90
20700;DHT22;10511;51.232;9.420;2023-02-18T10:41:22;10.40;99.90
20700;DHT22;10511;51.232;9.420;2023-02-18T10:43:57;10.50;99.90
20700;DHT22;10511;51.232;9.420;2023-02-18T10:46:29;10.60;99.90
20700;DHT22;10511;51.232;9.420;2023-02-18T10:49:11;10.50;99.90
20700;DHT22;10511;51.232;9.420;2023-02-18T10:51:49;10.40;99.90
20700;DHT22;10511;51.232;9.420;2023-02-18T10:54:22;10.40;99.90
20700;DHT22;10511;51.232;9.420;2023-02-18T10:56:51;10.40;99.90
20700;DHT22;10511;51.232;9.420;2023-02-18T10:59:20;10.40;99.90
20700;DHT22;10511;51.232;9.420;2023-02-18T11:01:54;10.40;99.90
20700;DHT22;10511;51.232;9.420;2023-02-18T11:04:25;10.40;99.90
20700;DHT22;10511;51.232;9.420;2023-02-18T11:06:52;10.40;99.90
20700;DHT22;10511;51.232;9.420;2023-02-18T11:09:32;10.30;99.90
20700;DHT22;10511;51.232;9.420;2023-02-18T11:12:03;10.30;99.90
20700;DHT22;10511;51.232;9.420;2023-02-18T11:14:41;10.10;99.90
20700;DHT22;10511;51.232;9.420;2023-02-18T11:17:16;10.10;99.90
20700;DHT22;10511;51.232;9.420;2023-02-18T11:19:51;10.10;99.90
20700;DHT22;10511;51.232;9.420;2023-02-18T11:22:21;10.00;99.90
20700;DHT22;10511;51.232;9.420;2023-02-18T11:24:53;10.00;99.90
20700;DHT22;10511;51.232;9.420;2023-02-18T11:27:25;10.00;99.90
20700;DHT22;10511;51.232;9.420;2023-02-18T11:29:59;9.90;99.90
20700;DHT22;10511;51.232;9.420;2023-02-18T11:32:28;9.90;99.90
20700;DHT22;10511;51.232;9.420;2023-02-18T11:34:55;9.80;99.90
20700;DHT22;10511;51.232;9.420;2023-02-18T11:37:23;9.80;99.90
20700;DHT22;10511;51.232;9.420;2023-02-18T11:39:53;9.80;99.90
20700;DHT22;10511;51.232;9.420;2023-02-18T11:42:22;9.90;99.90
20700;DHT22;10511;51.232;9.420;2023-02-18T11:44:52;9.90;99.90
20700;DHT22;10511;51.232;9.420;2023-02-18T11:47:23;9.80;99.90
20700;DHT22;10511;51.232;9.420;2023-02-18T11:50:13;9.80;99.90
20700;DHT22;10511;51.232;9.420;2023-02-18T11:52:43;9.80;99.90
20700;DHT22;10511;51.232;9.420;2023-02-18T11:55:17;9.80;99.90
20700;DHT22;10511;51.232;9.420;2023-02-18T11:57:47;9.80;99.90
20700;DHT22;10511;51.232;9.420;2023-02-18T12:00:21;9.80;99.90
20700;DHT22;10511;51.232;9.420;2023-02-18T12:02:49;9.80;99.90
20700;DHT22;10511;51.232;9.420;2023-02-18T12:05:20;9.80;99.90
20700;DHT22;10511;51.232;9.420;2023-02-18T12:07:50;9.80;99.90
20700;DHT22;10511;51.232;9.420;2023-02-18T12:10:26;9.80;99.90
20700;DHT22;10511;51.232;9.420;2023-02-18T12:12:58;9.80;99.90
20700;DHT22;10511;51.232;9.420;2023-02-18T12:15:40;9.80;99.90
20700;DHT22;10511;51.232;9.420;2023-02-18T12:18:25;9.80;99.90
20700;DHT22;10511;51.232;9.420;2023-02-18T12:21:02;9.90;99.90
20700;DHT22;10511;51.232;9.420;2023-02-18T12:23:36;9.80;99.90
20700;DHT22;10511;51.232;9.420;2023-02-18T12:26:18;9.90;99.90
20700;DHT22;10511;51.232;9.420;2023-02-18T12:29:22;9.90;99.90
20700;DHT22;10511;51.232;9.420;2023-02-18T12:32:15;9.90;99.90
20700;DHT22;10511;51.232;9.420;2023-02-18T12:34:52;9.90;99.90
20700;DHT22;10511;51.232;9.420;2023-02-18T12:37:52;9.90;99.90
20700;DHT22;10511;51.232;9.420;2023-02-18T12:40:39;9.90;99.90
20700;DHT22;10511;51.232;9.420;2023-02-18T12:43:19;9.90;99.90
20700;DHT22;10511;51.232;9.420;2023-02-18T12:46:25;10.00;99.90
20700;DHT22;10511;51.232;9.420;2023-02-18T12:52:07;10.00;99.90
20700;DHT22;10511;51.232;9.420;2023-02-18T12:55:00;10.00;99.90
20700;DHT22;10511;51.232;9.420;2023-02-18T12:57:38;10.00;99.90
20700;DHT22;10511;51.232;9.420;2023-02-18T13:03:17;9.90;99.90
20700;DHT22;10511;51.232;9.420;2023-02-18T13:05:59;10.00;99.90
20700;DHT22;10511;51.232;9.420;2023-02-18T13:08:38;10.00;99.90
20700;DHT22;10511;51.232;9.420;2023-02-18T13:11:18;10.00;99.90
20700;DHT22;10511;51.232;9.420;2023-02-18T13:13:55;10.00;99.90
20700;DHT22;10511;51.232;9.420;2023-02-18T13:16:27;10.00;99.90
20700;DHT22;10511;51.232;9.420;2023-02-18T13:19:01;10.00;99.90
20700;DHT22;10511;51.232;9.420;2023-02-18T13:21:30;10.00;99.90
20700;DHT22;10511;51.232;9.420;2023-02-18T13:24:01;10.00;99.90
20700;DHT22;10511;51.232;9.420;2023-02-18T13:26:32;10.00;99.90
20700;DHT22;10511;51.232;9.420;2023-02-18T13:29:14;10.10;99.90
20700;DHT22;10511;51.232;9.420;2023-02-18T13:31:51;10.00;99.90
20700;DHT22;10511;51.232;9.420;2023-02-18T13:34:26;10.00;99.90
20700;DHT22;10511;51.232;9.420;2023-02-18T13:37:04;10.00;99.90
20700;DHT22;10511;51.232;9.420;2023-02-18T13:39:33;10.10;99.90
20700;DHT22;10511;51.232;9.420;2023-02-18T13:42:33;10.00;99.90
20700;DHT22;10511;51.232;9.420;2023-02-18T13:47:54;10.10;99.90
20700;DHT22;10511;51.232;9.420;2023-02-18T13:50:31;10.10;99.90
20700;DHT22;10511;51.232;9.420;2023-02-18T13:53:13;10.20;99.90
20700;DHT22;10511;51.232;9.420;2023-02-18T13:55:49;10.20;99.90
20700;DHT22;10511;51.232;9.420;2023-02-18T13:58:20;10.30;99.90
20700;DHT22;10511;51.232;9.420;2023-02-18T14:00:52;10.20;99.90
20700;DHT22;10511;51.232;9.420;2023-02-18T14:03:33;10.20;99.90
20700;DHT22;10511;51.232;9.420;2023-02-18T14:06:01;10.30;99.90
20700;DHT22;10511;51.232;9.420;2023-02-18T14:08:40;10.30;99.90
20700;DHT22;10511;51.232;9.420;2023-02-18T14:11:32;10.20;99.90
20700;DHT22;10511;51.232;9.420;2023-02-18T14:14:32;10.30;99.90
20700;DHT22;10511;51.232;9.420;2023-02-18T14:20:42;10.30;99.90
20700;DHT22;10511;51.232;9.420;2023-02-18T14:26:04;10.20;99.90
20700;DHT22;10511;51.232;9.420;2023-02-18T14:28:38;10.20;99.90
20700;DHT22;10511;51.232;9.420;2023-02-18T14:31:20;10.10;99.90
20700;DHT22;10511;51.232;9.420;2023-02-18T14:33:54;10.10;99.90
20700;DHT22;10511;51.232;9.420;2023-02-18T14:36:32;10.10;99.90
20700;DHT22;10511;51.232;9.420;2023-02-18T14:39:07;10.10;99.90
20700;DHT22;10511;51.232;9.420;2023-02-18T14:41:45;10.10;99.90
20700;DHT22;10511;51.232;9.420;2023-02-18T14:44:27;10.10;99.90
20700;DHT22;10511;51.232;9.420;2023-02-18T14:47:11;10.10;99.90
20700;DHT22;10511;51.232;9.420;2023-02-18T14:49:48;10.10;99.90
20700;DHT22;10511;51.232;9.420;2023-02-18T14:52:26;10.10;99.90
20700;DHT22;10511;51.232;9.420;2023-02-18T14:54:55;10.10;99.90
20700;DHT22;10511;51.232;9.420;2023-02-18T14:57:32;10.10;99.90
20700;DHT22;10511;51.232;9.420;2023-02-18T15:00:03;10.00;99.90
20700;DHT22;10511;51.232;9.420;2023-02-18T15:02:36;10.00;99.90
20700;DHT22;10511;51.232;9.420;2023-02-18T15:05:15;9.90;99.90
20700;DHT22;10511;51.232;9.420;2023-02-18T15:07:57;9.90;99.90
20700;DHT22;10511;51.232;9.420;2023-02-18T15:10:35;9.90;99.90
20700;DHT22;10511;51.232;9.420;2023-02-18T15:13:08;9.90;99.90
20700;DHT22;10511;51.232;9.420;2023-02-18T15:15:38;9.90;99.90
20700;DHT22;10511;51.232;9.420;2023-02-18T15:18:19;9.90;99.90
20700;DHT22;10511;51.232;9.420;2023-02-18T15:20:48;10.00;99.90
20700;DHT22;10511;51.232;9.420;2023-02-18T15:23:21;10.00;99.90
20700;DHT22;10511;51.232;9.420;2023-02-18T15:25:52;10.10;99.90
20700;DHT22;10511;51.232;9.420;2023-02-18T15:28:25;10.10;99.90
20700;DHT22;10511;51.232;9.420;2023-02-18T15:30:54;10.00;99.90
20700;DHT22;10511;51.232;9.420;2023-02-18T15:33:24;10.00;99.90
20700;DHT22;10511;51.232;9.420;2023-02-18T15:36:00;10.00;99.90
20700;DHT22;10511;51.232;9.420;2023-02-18T15:38:31;10.00;99.90
20700;DHT22;10511;51.232;9.420;2023-02-18T15:41:01;10.00;99.90
20700;DHT22;10511;51.232;9.420;2023-02-18T15:43:30;9.90;99.90
20700;DHT22;10511;51.232;9.420;2023-02-18T15:46:00;9.90;99.90
20700;DHT22;10511;51.232;9.420;2023-02-18T15:48:33;9.90;99.90
20700;DHT22;10511;51.232;9.420;2023-02-18T15:51:12;9.90;99.90
20700;DHT22;10511;51.232;9.420;2023-02-18T15:53:45;9.90;99.90
20700;DHT22;10511;51.232;9.420;2023-02-18T15:56:25;9.90;99.90
20700;DHT22;10511;51.232;9.420;2023-02-18T15:59:08;9.90;99.90
20700;DHT22;10511;51.232;9.420;2023-02-18T16:01:36;9.90;99.90
20700;DHT22;10511;51.232;9.420;2023-02-18T16:04:07;10.00;99.90
20700;DHT22;10511;51.232;9.420;2023-02-18T16:06:38;9.90;99.90
20700;DHT22;10511;51.232;9.420;2023-02-18T16:09:21;9.80;99.90
20700;DHT22;10511;51.232;9.420;2023-02-18T16:11:52;9.80;99.90
20700;DHT22;10511;51.232;9.420;2023-02-18T16:14:28;9.80;99.90
20700;DHT22;10511;51.232;9.420;2023-02-18T16:17:08;9.80;99.90
20700;DHT22;10511;51.232;9.420;2023-02-18T16:19:46;9.90;99.90
20700;DHT22;10511;51.232;9.420;2023-02-18T16:22:32;9.90;99.90
20700;DHT22;10511;51.232;9.420;2023-02-18T16:25:13;9.90;99.90
20700;DHT22;10511;51.232;9.420;2023-02-18T16:27:51;9.80;99.90